Naberezhnye Chelny, Russia
Current Conditions -  °F | °C
As of 6:00 AM on Thursday 23 Oct 2014 (Local Time) from UWKE Reporting Station
Broken Clouds Broken Clouds  
Wind Chill: -9°   Ceiling: 1800
Heat Index:   Visibility: 6mi
Dew Point: -2°   Wind: 16mph
Humidity: 62%   Direction: 260°W
Pressure: 29.65"   Gusts: 22mph
Location:  55.42°N, 52.19°E
Report Text: UWKE 230300Z 26007G10MPS 9999 BKN018CB M13/M19 Q1004 NOSIG RMKQFE736/0982 21410560
Loading
Personal Weather Stations






























Interactive Weather Map
Tropical Storm Tracking
New forecast layout! Learn more

10-Day Weather Forecast

Advertisements
Track Severe Weather on mobile